sensor_id;sensor_type;location;lat;lon;timestamp;P1;durP1;ratioP1;P2;durP2;ratioP2
24325;SDS011;12448;45.532;5.290;2023-07-20T00:00:29;4.53;;;2.53;;
24325;SDS011;12448;45.532;5.290;2023-07-20T00:03:05;4.45;;;2.78;;
24325;SDS011;12448;45.532;5.290;2023-07-20T00:05:45;5.25;;;2.22;;
24325;SDS011;12448;45.532;5.290;2023-07-20T00:08:11;6.40;;;2.47;;
24325;SDS011;12448;45.532;5.290;2023-07-20T00:10:38;5.75;;;2.55;;
24325;SDS011;12448;45.532;5.290;2023-07-20T00:13:05;7.68;;;2.78;;
24325;SDS011;12448;45.532;5.290;2023-07-20T00:15:31;5.03;;;2.47;;
24325;SDS011;12448;45.532;5.290;2023-07-20T00:17:56;3.85;;;2.65;;
24325;SDS011;12448;45.532;5.290;2023-07-20T00:20:23;4.43;;;2.67;;
24325;SDS011;12448;45.532;5.290;2023-07-20T00:22:50;4.72;;;2.50;;
24325;SDS011;12448;45.532;5.290;2023-07-20T00:25:20;5.88;;;2.88;;
24325;SDS011;12448;45.532;5.290;2023-07-20T00:27:45;5.50;;;2.22;;
24325;SDS011;12448;45.532;5.290;2023-07-20T00:30:11;6.57;;;2.67;;
24325;SDS011;12448;45.532;5.290;2023-07-20T00:32:37;6.18;;;2.90;;
24325;SDS011;12448;45.532;5.290;2023-07-20T00:35:03;6.57;;;2.40;;
24325;SDS011;12448;45.532;5.290;2023-07-20T00:37:29;8.30;;;2.80;;
24325;SDS011;12448;45.532;5.290;2023-07-20T00:39:55;8.30;;;2.58;;
24325;SDS011;12448;45.532;5.290;2023-07-20T00:42:20;6.20;;;2.72;;
24325;SDS011;12448;45.532;5.290;2023-07-20T00:44:47;6.32;;;2.50;;
24325;SDS011;12448;45.532;5.290;2023-07-20T00:47:12;4.85;;;2.65;;
24325;SDS011;12448;45.532;5.290;2023-07-20T00:49:38;4.18;;;2.65;;
24325;SDS011;12448;45.532;5.290;2023-07-20T00:52:05;7.40;;;2.78;;
24325;SDS011;12448;45.532;5.290;2023-07-20T00:54:32;6.72;;;2.63;;
24325;SDS011;12448;45.532;5.290;2023-07-20T00:56:58;6.53;;;3.05;;
24325;SDS011;12448;45.532;5.290;2023-07-20T00:59:26;6.80;;;2.40;;
24325;SDS011;12448;45.532;5.290;2023-07-20T01:01:52;5.35;;;2.50;;
24325;SDS011;12448;45.532;5.290;2023-07-20T01:04:18;4.47;;;2.60;;
24325;SDS011;12448;45.532;5.290;2023-07-20T01:06:53;4.88;;;2.58;;
24325;SDS011;12448;45.532;5.290;2023-07-20T01:09:25;5.60;;;2.63;;
24325;SDS011;12448;45.532;5.290;2023-07-20T01:12:02;4.57;;;2.28;;
24325;SDS011;12448;45.532;5.290;2023-07-20T01:14:34;8.00;;;2.53;;
24325;SDS011;12448;45.532;5.290;2023-07-20T01:17:00;4.07;;;2.30;;
24325;SDS011;12448;45.532;5.290;2023-07-20T01:19:26;5.63;;;2.55;;
24325;SDS011;12448;45.532;5.290;2023-07-20T01:32:42;4.03;;;2.00;;
24325;SDS011;12448;45.532;5.290;2023-07-20T01:35:10;4.78;;;2.20;;
24325;SDS011;12448;45.532;5.290;2023-07-20T01:37:39;4.80;;;2.05;;
24325;SDS011;12448;45.532;5.290;2023-07-20T01:40:08;3.65;;;2.17;;
24325;SDS011;12448;45.532;5.290;2023-07-20T01:42:37;6.28;;;2.28;;
24325;SDS011;12448;45.532;5.290;2023-07-20T01:45:02;4.30;;;1.80;;
24325;SDS011;12448;45.532;5.290;2023-07-20T01:47:28;3.80;;;2.10;;
24325;SDS011;12448;45.532;5.290;2023-07-20T01:49:54;3.80;;;1.80;;
24325;SDS011;12448;45.532;5.290;2023-07-20T01:52:19;7.15;;;2.15;;
24325;SDS011;12448;45.532;5.290;2023-07-20T01:54:45;4.63;;;1.98;;
24325;SDS011;12448;45.532;5.290;2023-07-20T01:57:11;4.65;;;1.83;;
24325;SDS011;12448;45.532;5.290;2023-07-20T01:59:36;6.60;;;2.05;;
24325;SDS011;12448;45.532;5.290;2023-07-20T02:02:02;4.90;;;2.10;;
24325;SDS011;12448;45.532;5.290;2023-07-20T02:04:28;3.13;;;1.70;;
24325;SDS011;12448;45.532;5.290;2023-07-20T02:06:53;5.10;;;2.03;;
24325;SDS011;12448;45.532;5.290;2023-07-20T02:09:19;7.85;;;2.28;;
24325;SDS011;12448;45.532;5.290;2023-07-20T02:11:45;3.33;;;1.75;;
24325;SDS011;12448;45.532;5.290;2023-07-20T02:14:10;3.22;;;1.70;;
24325;SDS011;12448;45.532;5.290;2023-07-20T02:16:36;7.15;;;2.20;;
24325;SDS011;12448;45.532;5.290;2023-07-20T02:19:01;4.90;;;1.80;;
24325;SDS011;12448;45.532;5.290;2023-07-20T02:21:28;3.22;;;1.90;;
24325;SDS011;12448;45.532;5.290;2023-07-20T02:23:54;5.20;;;1.90;;
24325;SDS011;12448;45.532;5.290;2023-07-20T02:26:19;3.47;;;1.80;;
24325;SDS011;12448;45.532;5.290;2023-07-20T02:28:45;8.95;;;1.67;;
24325;SDS011;12448;45.532;5.290;2023-07-20T02:31:10;4.32;;;1.80;;
24325;SDS011;12448;45.532;5.290;2023-07-20T02:33:36;3.58;;;1.70;;
24325;SDS011;12448;45.532;5.290;2023-07-20T02:36:02;4.78;;;1.80;;
24325;SDS011;12448;45.532;5.290;2023-07-20T02:38:27;5.78;;;1.88;;
24325;SDS011;12448;45.532;5.290;2023-07-20T02:40:53;3.08;;;1.80;;
24325;SDS011;12448;45.532;5.290;2023-07-20T02:43:19;3.45;;;1.67;;
24325;SDS011;12448;45.532;5.290;2023-07-20T02:45:44;3.78;;;1.52;;
24325;SDS011;12448;45.532;5.290;2023-07-20T02:48:10;3.45;;;1.42;;
24325;SDS011;12448;45.532;5.290;2023-07-20T02:50:35;2.70;;;1.50;;
24325;SDS011;12448;45.532;5.290;2023-07-20T02:53:01;6.10;;;1.63;;
24325;SDS011;12448;45.532;5.290;2023-07-20T02:55:27;3.75;;;1.70;;
24325;SDS011;12448;45.532;5.290;2023-07-20T02:57:53;3.25;;;1.77;;
24325;SDS011;12448;45.532;5.290;2023-07-20T03:00:18;3.25;;;1.52;;
24325;SDS011;12448;45.532;5.290;2023-07-20T03:02:44;3.55;;;1.80;;
24325;SDS011;12448;45.532;5.290;2023-07-20T03:05:13;8.77;;;2.00;;
24325;SDS011;12448;45.532;5.290;2023-07-20T03:07:39;2.10;;;1.50;;
24325;SDS011;12448;45.532;5.290;2023-07-20T03:10:05;6.55;;;1.67;;
24325;SDS011;12448;45.532;5.290;2023-07-20T03:12:34;2.80;;;1.80;;
24325;SDS011;12448;45.532;5.290;2023-07-20T03:14:59;5.82;;;1.90;;
24325;SDS011;12448;45.532;5.290;2023-07-20T03:17:26;4.57;;;1.75;;
24325;SDS011;12448;45.532;5.290;2023-07-20T03:19:51;4.85;;;2.08;;
24325;SDS011;12448;45.532;5.290;2023-07-20T03:22:17;4.75;;;1.67;;
24325;SDS011;12448;45.532;5.290;2023-07-20T03:24:43;3.30;;;1.40;;
24325;SDS011;12448;45.532;5.290;2023-07-20T03:27:09;3.33;;;1.48;;
24325;SDS011;12448;45.532;5.290;2023-07-20T03:29:34;4.47;;;1.40;;
24325;SDS011;12448;45.532;5.290;2023-07-20T03:32:00;2.78;;;1.27;;
24325;SDS011;12448;45.532;5.290;2023-07-20T03:34:25;2.75;;;1.63;;
24325;SDS011;12448;45.532;5.290;2023-07-20T03:36:51;4.90;;;1.50;;
24325;SDS011;12448;45.532;5.290;2023-07-20T03:39:17;6.18;;;1.60;;
24325;SDS011;12448;45.532;5.290;2023-07-20T03:41:42;5.82;;;1.50;;
24325;SDS011;12448;45.532;5.290;2023-07-20T03:44:08;5.63;;;1.70;;
24325;SDS011;12448;45.532;5.290;2023-07-20T03:46:33;4.13;;;1.70;;
24325;SDS011;12448;45.532;5.290;2023-07-20T03:48:59;5.05;;;1.75;;
24325;SDS011;12448;45.532;5.290;2023-07-20T03:51:25;4.13;;;1.60;;
24325;SDS011;12448;45.532;5.290;2023-07-20T03:53:51;5.10;;;1.52;;
24325;SDS011;12448;45.532;5.290;2023-07-20T03:56:17;3.05;;;1.55;;
24325;SDS011;12448;45.532;5.290;2023-07-20T03:58:42;2.72;;;1.67;;
24325;SDS011;12448;45.532;5.290;2023-07-20T04:01:08;3.05;;;1.80;;
24325;SDS011;12448;45.532;5.290;2023-07-20T04:03:34;7.60;;;1.60;;
24325;SDS011;12448;45.532;5.290;2023-07-20T04:06:01;3.47;;;1.50;;
24325;SDS011;12448;45.532;5.290;2023-07-20T04:08:27;4.15;;;1.60;;
24325;SDS011;12448;45.532;5.290;2023-07-20T04:10:53;3.83;;;1.50;;
24325;SDS011;12448;45.532;5.290;2023-07-20T04:13:18;4.40;;;1.80;;
24325;SDS011;12448;45.532;5.290;2023-07-20T04:15:44;4.20;;;1.67;;
24325;SDS011;12448;45.532;5.290;2023-07-20T04:18:10;1.92;;;1.40;;
24325;SDS011;12448;45.532;5.290;2023-07-20T04:20:35;4.30;;;1.73;;
24325;SDS011;12448;45.532;5.290;2023-07-20T04:23:01;3.85;;;1.77;;
24325;SDS011;12448;45.532;5.290;2023-07-20T04:25:26;2.80;;;1.63;;
24325;SDS011;12448;45.532;5.290;2023-07-20T04:27:52;7.05;;;1.95;;
24325;SDS011;12448;45.532;5.290;2023-07-20T04:30:18;3.38;;;1.92;;
24325;SDS011;12448;45.532;5.290;2023-07-20T04:32:45;6.07;;;1.80;;
24325;SDS011;12448;45.532;5.290;2023-07-20T04:35:17;3.53;;;1.60;;
24325;SDS011;12448;45.532;5.290;2023-07-20T04:38:02;3.65;;;1.70;;
24325;SDS011;12448;45.532;5.290;2023-07-20T04:40:28;2.72;;;1.70;;
24325;SDS011;12448;45.532;5.290;2023-07-20T04:42:54;6.55;;;1.80;;
24325;SDS011;12448;45.532;5.290;2023-07-20T04:45:19;3.55;;;1.50;;
24325;SDS011;12448;45.532;5.290;2023-07-20T04:47:47;4.18;;;1.80;;
24325;SDS011;12448;45.532;5.290;2023-07-20T04:50:15;7.40;;;1.55;;
24325;SDS011;12448;45.532;5.290;2023-07-20T04:52:40;6.00;;;1.70;;
24325;SDS011;12448;45.532;5.290;2023-07-20T04:55:06;3.70;;;1.75;;
24325;SDS011;12448;45.532;5.290;2023-07-20T04:57:32;2.13;;;1.60;;
24325;SDS011;12448;45.532;5.290;2023-07-20T04:59:58;3.22;;;1.92;;
24325;SDS011;12448;45.532;5.290;2023-07-20T05:02:24;8.00;;;1.90;;
24325;SDS011;12448;45.532;5.290;2023-07-20T05:04:49;2.75;;;1.70;;
24325;SDS011;12448;45.532;5.290;2023-07-20T05:07:15;3.00;;;1.50;;
24325;SDS011;12448;45.532;5.290;2023-07-20T05:09:40;3.60;;;1.30;;
24325;SDS011;12448;45.532;5.290;2023-07-20T05:12:06;2.33;;;1.58;;
24325;SDS011;12448;45.532;5.290;2023-07-20T05:14:32;4.25;;;1.35;;
24325;SDS011;12448;45.532;5.290;2023-07-20T05:16:58;3.15;;;1.90;;
24325;SDS011;12448;45.532;5.290;2023-07-20T05:19:24;6.55;;;1.60;;
24325;SDS011;12448;45.532;5.290;2023-07-20T05:21:50;2.95;;;1.70;;
24325;SDS011;12448;45.532;5.290;2023-07-20T05:24:16;4.43;;;1.70;;
24325;SDS011;12448;45.532;5.290;2023-07-20T05:26:41;4.72;;;1.63;;
24325;SDS011;12448;45.532;5.290;2023-07-20T05:29:07;3.13;;;1.60;;
24325;SDS011;12448;45.532;5.290;2023-07-20T05:31:33;6.93;;;1.70;;
24325;SDS011;12448;45.532;5.290;2023-07-20T05:33:58;3.63;;;1.70;;
24325;SDS011;12448;45.532;5.290;2023-07-20T05:36:24;3.60;;;1.77;;
24325;SDS011;12448;45.532;5.290;2023-07-20T05:38:50;4.90;;;1.50;;
24325;SDS011;12448;45.532;5.290;2023-07-20T05:41:15;3.90;;;1.60;;
24325;SDS011;12448;45.532;5.290;2023-07-20T05:43:41;5.78;;;1.50;;
24325;SDS011;12448;45.532;5.290;2023-07-20T05:46:07;4.05;;;1.92;;
24325;SDS011;12448;45.532;5.290;2023-07-20T05:48:33;4.82;;;1.50;;
24325;SDS011;12448;45.532;5.290;2023-07-20T05:50:58;5.35;;;1.55;;
24325;SDS011;12448;45.532;5.290;2023-07-20T05:53:24;3.15;;;1.42;;
24325;SDS011;12448;45.532;5.290;2023-07-20T05:55:53;5.00;;;1.40;;
24325;SDS011;12448;45.532;5.290;2023-07-20T05:58:19;5.18;;;1.77;;
24325;SDS011;12448;45.532;5.290;2023-07-20T06:00:47;3.20;;;1.60;;
24325;SDS011;12448;45.532;5.290;2023-07-20T06:03:14;4.50;;;1.50;;
24325;SDS011;12448;45.532;5.290;2023-07-20T06:05:41;3.95;;;1.80;;
24325;SDS011;12448;45.532;5.290;2023-07-20T06:08:07;3.78;;;1.75;;
24325;SDS011;12448;45.532;5.290;2023-07-20T06:10:32;4.07;;;1.80;;
24325;SDS011;12448;45.532;5.290;2023-07-20T06:12:58;3.85;;;1.58;;
24325;SDS011;12448;45.532;5.290;2023-07-20T06:15:28;3.03;;;1.73;;
24325;SDS011;12448;45.532;5.290;2023-07-20T06:17:56;4.70;;;1.83;;
24325;SDS011;12448;45.532;5.290;2023-07-20T06:20:23;5.78;;;1.52;;
24325;SDS011;12448;45.532;5.290;2023-07-20T06:22:49;2.92;;;1.73;;
24325;SDS011;12448;45.532;5.290;2023-07-20T06:25:14;4.53;;;1.98;;
24325;SDS011;12448;45.532;5.290;2023-07-20T06:27:40;5.43;;;1.65;;
24325;SDS011;12448;45.532;5.290;2023-07-20T06:30:06;2.38;;;1.65;;
24325;SDS011;12448;45.532;5.290;2023-07-20T06:32:32;4.03;;;1.42;;
24325;SDS011;12448;45.532;5.290;2023-07-20T06:34:58;3.22;;;1.65;;
24325;SDS011;12448;45.532;5.290;2023-07-20T06:37:23;3.38;;;1.70;;
24325;SDS011;12448;45.532;5.290;2023-07-20T06:39:49;3.45;;;1.90;;
24325;SDS011;12448;45.532;5.290;2023-07-20T06:42:14;4.90;;;1.77;;
24325;SDS011;12448;45.532;5.290;2023-07-20T06:44:40;4.45;;;1.77;;
24325;SDS011;12448;45.532;5.290;2023-07-20T06:47:06;5.43;;;2.28;;
24325;SDS011;12448;45.532;5.290;2023-07-20T06:49:32;2.78;;;1.70;;
24325;SDS011;12448;45.532;5.290;2023-07-20T06:51:58;4.45;;;1.85;;
24325;SDS011;12448;45.532;5.290;2023-07-20T06:54:23;5.40;;;1.83;;
24325;SDS011;12448;45.532;5.290;2023-07-20T06:56:49;3.30;;;1.77;;
24325;SDS011;12448;45.532;5.290;2023-07-20T06:59:15;3.80;;;1.60;;
24325;SDS011;12448;45.532;5.290;2023-07-20T07:01:41;4.38;;;1.83;;
24325;SDS011;12448;45.532;5.290;2023-07-20T07:04:06;8.07;;;2.08;;
24325;SDS011;12448;45.532;5.290;2023-07-20T07:06:32;4.55;;;1.80;;
24325;SDS011;12448;45.532;5.290;2023-07-20T07:08:58;5.97;;;1.73;;
24325;SDS011;12448;45.532;5.290;2023-07-20T07:11:23;2.78;;;1.50;;
24325;SDS011;12448;45.532;5.290;2023-07-20T07:13:49;4.38;;;1.83;;
24325;SDS011;12448;45.532;5.290;2023-07-20T07:16:16;3.58;;;1.52;;
24325;SDS011;12448;45.532;5.290;2023-07-20T07:18:44;3.58;;;1.80;;
24325;SDS011;12448;45.532;5.290;2023-07-20T07:21:10;4.28;;;1.60;;
24325;SDS011;12448;45.532;5.290;2023-07-20T07:23:37;5.65;;;1.80;;
24325;SDS011;12448;45.532;5.290;2023-07-20T07:26:03;5.63;;;1.70;;
24325;SDS011;12448;45.532;5.290;2023-07-20T07:28:29;3.58;;;1.60;;
24325;SDS011;12448;45.532;5.290;2023-07-20T07:30:55;3.22;;;1.70;;
24325;SDS011;12448;45.532;5.290;2023-07-20T07:33:22;4.93;;;1.60;;
24325;SDS011;12448;45.532;5.290;2023-07-20T07:35:47;3.88;;;1.65;;
24325;SDS011;12448;45.532;5.290;2023-07-20T07:38:14;2.38;;;1.35;;
24325;SDS011;12448;45.532;5.290;2023-07-20T07:40:39;2.60;;;1.48;;
24325;SDS011;12448;45.532;5.290;2023-07-20T07:43:05;4.00;;;1.70;;
24325;SDS011;12448;45.532;5.290;2023-07-20T07:45:33;3.55;;;1.77;;
24325;SDS011;12448;45.532;5.290;2023-07-20T07:48:01;5.30;;;1.70;;
24325;SDS011;12448;45.532;5.290;2023-07-20T07:50:27;5.72;;;1.90;;
24325;SDS011;12448;45.532;5.290;2023-07-20T07:52:53;7.78;;;1.70;;
24325;SDS011;12448;45.532;5.290;2023-07-20T07:55:19;3.97;;;1.80;;
24325;SDS011;12448;45.532;5.290;2023-07-20T07:57:44;3.13;;;1.60;;
24325;SDS011;12448;45.532;5.290;2023-07-20T08:00:12;5.35;;;1.92;;
24325;SDS011;12448;45.532;5.290;2023-07-20T08:02:40;3.80;;;1.80;;
24325;SDS011;12448;45.532;5.290;2023-07-20T08:05:07;6.63;;;1.52;;
24325;SDS011;12448;45.532;5.290;2023-07-20T08:07:32;4.80;;;1.55;;
24325;SDS011;12448;45.532;5.290;2023-07-20T08:09:58;2.78;;;1.45;;
24325;SDS011;12448;45.532;5.290;2023-07-20T08:12:25;5.72;;;1.90;;
24325;SDS011;12448;45.532;5.290;2023-07-20T08:14:52;6.50;;;1.70;;
24325;SDS011;12448;45.532;5.290;2023-07-20T08:17:17;5.40;;;1.50;;
24325;SDS011;12448;45.532;5.290;2023-07-20T08:19:43;2.15;;;1.38;;
24325;SDS011;12448;45.532;5.290;2023-07-20T08:22:09;3.72;;;1.73;;
24325;SDS011;12448;45.532;5.290;2023-07-20T08:24:35;6.97;;;1.70;;
24325;SDS011;12448;45.532;5.290;2023-07-20T08:27:04;5.32;;;1.60;;
24325;SDS011;12448;45.532;5.290;2023-07-20T08:29:30;3.60;;;1.38;;
24325;SDS011;12448;45.532;5.290;2023-07-20T08:31:55;5.53;;;1.42;;
24325;SDS011;12448;45.532;5.290;2023-07-20T08:34:21;5.15;;;1.58;;
24325;SDS011;12448;45.532;5.290;2023-07-20T08:36:46;9.60;;;1.77;;
24325;SDS011;12448;45.532;5.290;2023-07-20T08:39:12;7.95;;;1.95;;
24325;SDS011;12448;45.532;5.290;2023-07-20T08:41:38;4.20;;;1.55;;
24325;SDS011;12448;45.532;5.290;2023-07-20T08:44:04;5.75;;;1.80;;
24325;SDS011;12448;45.532;5.290;2023-07-20T08:46:32;3.47;;;1.40;;
24325;SDS011;12448;45.532;5.290;2023-07-20T08:48:59;6.68;;;1.60;;
24325;SDS011;12448;45.532;5.290;2023-07-20T08:51:27;2.90;;;1.50;;
24325;SDS011;12448;45.532;5.290;2023-07-20T08:53:54;2.17;;;1.48;;
24325;SDS011;12448;45.532;5.290;2023-07-20T08:56:20;5.95;;;1.48;;
24325;SDS011;12448;45.532;5.290;2023-07-20T08:58:46;2.05;;;1.30;;
24325;SDS011;12448;45.532;5.290;2023-07-20T09:01:12;2.28;;;1.40;;
24325;SDS011;12448;45.532;5.290;2023-07-20T09:03:39;3.53;;;1.20;;
24325;SDS011;12448;45.532;5.290;2023-07-20T09:06:07;4.65;;;1.38;;
24325;SDS011;12448;45.532;5.290;2023-07-20T09:08:33;4.40;;;1.42;;
24325;SDS011;12448;45.532;5.290;2023-07-20T09:11:02;2.42;;;1.23;;
24325;SDS011;12448;45.532;5.290;2023-07-20T09:13:28;2.38;;;1.30;;
24325;SDS011;12448;45.532;5.290;2023-07-20T09:15:53;2.85;;;1.25;;
24325;SDS011;12448;45.532;5.290;2023-07-20T09:18:23;1.80;;;1.30;;
24325;SDS011;12448;45.532;5.290;2023-07-20T09:20:57;4.50;;;1.55;;
24325;SDS011;12448;45.532;5.290;2023-07-20T09:23:33;4.22;;;1.40;;
24325;SDS011;12448;45.532;5.290;2023-07-20T09:26:00;4.90;;;1.48;;
24325;SDS011;12448;45.532;5.290;2023-07-20T09:28:40;4.50;;;1.40;;
24325;SDS011;12448;45.532;5.290;2023-07-20T09:31:16;2.58;;;1.50;;
24325;SDS011;12448;45.532;5.290;2023-07-20T09:33:46;5.32;;;1.38;;
24325;SDS011;12448;45.532;5.290;2023-07-20T09:36:13;5.28;;;1.33;;
24325;SDS011;12448;45.532;5.290;2023-07-20T09:38:40;5.80;;;1.75;;
24325;SDS011;12448;45.532;5.290;2023-07-20T09:41:07;6.30;;;1.83;;
24325;SDS011;12448;45.532;5.290;2023-07-20T09:43:36;2.08;;;1.33;;
24325;SDS011;12448;45.532;5.290;2023-07-20T09:46:02;2.13;;;1.38;;
24325;SDS011;12448;45.532;5.290;2023-07-20T09:48:29;2.55;;;1.40;;
24325;SDS011;12448;45.532;5.290;2023-07-20T09:50:55;2.38;;;1.45;;
24325;SDS011;12448;45.532;5.290;2023-07-20T09:53:21;4.45;;;1.77;;
24325;SDS011;12448;45.532;5.290;2023-07-20T09:55:50;5.95;;;1.95;;
24325;SDS011;12448;45.532;5.290;2023-07-20T09:58:17;3.17;;;1.55;;
24325;SDS011;12448;45.532;5.290;2023-07-20T10:00:43;2.85;;;1.55;;
24325;SDS011;12448;45.532;5.290;2023-07-20T10:03:16;4.03;;;1.75;;
24325;SDS011;12448;45.532;5.290;2023-07-20T10:05:48;3.28;;;1.38;;
24325;SDS011;12448;45.532;5.290;2023-07-20T10:08:23;4.32;;;1.80;;
24325;SDS011;12448;45.532;5.290;2023-07-20T10:10:50;3.33;;;1.50;;
24325;SDS011;12448;45.532;5.290;2023-07-20T10:13:21;1.77;;;1.30;;
24325;SDS011;12448;45.532;5.290;2023-07-20T10:15:58;4.32;;;1.83;;
24325;SDS011;12448;45.532;5.290;2023-07-20T10:18:30;4.00;;;1.90;;
24325;SDS011;12448;45.532;5.290;2023-07-20T10:21:16;4.50;;;1.58;;
24325;SDS011;12448;45.532;5.290;2023-07-20T10:23:44;4.38;;;1.73;;
24325;SDS011;12448;45.532;5.290;2023-07-20T10:26:11;4.55;;;1.60;;
24325;SDS011;12448;45.532;5.290;2023-07-20T10:28:38;2.95;;;1.58;;
24325;SDS011;12448;45.532;5.290;2023-07-20T10:31:04;5.65;;;1.67;;
24325;SDS011;12448;45.532;5.290;2023-07-20T10:33:32;2.83;;;1.45;;
24325;SDS011;12448;45.532;5.290;2023-07-20T10:36:01;4.28;;;1.70;;
24325;SDS011;12448;45.532;5.290;2023-07-20T10:38:40;2.63;;;1.40;;
24325;SDS011;12448;45.532;5.290;2023-07-20T10:41:21;3.95;;;1.33;;
24325;SDS011;12448;45.532;5.290;2023-07-20T10:43:57;4.97;;;1.40;;
24325;SDS011;12448;45.532;5.290;2023-07-20T10:46:41;5.97;;;1.40;;
24325;SDS011;12448;45.532;5.290;2023-07-20T10:49:11;1.90;;;1.30;;
24325;SDS011;12448;45.532;5.290;2023-07-20T10:51:39;1.90;;;1.50;;
24325;SDS011;12448;45.532;5.290;2023-07-20T10:54:10;2.13;;;1.27;;
24325;SDS011;12448;45.532;5.290;2023-07-20T10:56:55;5.47;;;1.33;;
24325;SDS011;12448;45.532;5.290;2023-07-20T11:01:54;1.90;;;1.20;;
24325;SDS011;12448;45.532;5.290;2023-07-20T11:04:26;3.53;;;1.33;;
24325;SDS011;12448;45.532;5.290;2023-07-20T11:07:02;2.90;;;1.60;;
24325;SDS011;12448;45.532;5.290;2023-07-20T11:09:32;4.22;;;1.42;;
24325;SDS011;12448;45.532;5.290;2023-07-20T11:12:09;2.13;;;1.20;;
24325;SDS011;12448;45.532;5.290;2023-07-20T11:14:43;2.15;;;1.20;;
24325;SDS011;12448;45.532;5.290;2023-07-20T11:17:19;3.15;;;1.35;;
24325;SDS011;12448;45.532;5.290;2023-07-20T11:19:47;2.05;;;1.30;;
24325;SDS011;12448;45.532;5.290;2023-07-20T11:22:16;3.55;;;1.50;;
24325;SDS011;12448;45.532;5.290;2023-07-20T11:24:42;3.10;;;1.30;;
24325;SDS011;12448;45.532;5.290;2023-07-20T11:27:08;1.77;;;1.20;;
24325;SDS011;12448;45.532;5.290;2023-07-20T11:29:34;2.15;;;1.13;;
24325;SDS011;12448;45.532;5.290;2023-07-20T11:32:02;4.93;;;1.30;;
24325;SDS011;12448;45.532;5.290;2023-07-20T11:34:29;4.50;;;1.25;;
24325;SDS011;12448;45.532;5.290;2023-07-20T11:36:56;3.45;;;1.30;;
24325;SDS011;12448;45.532;5.290;2023-07-20T11:39:22;6.10;;;1.42;;
24325;SDS011;12448;45.532;5.290;2023-07-20T11:41:56;1.40;;;1.17;;
24325;SDS011;12448;45.532;5.290;2023-07-20T11:44:23;3.28;;;1.48;;
24325;SDS011;12448;45.532;5.290;2023-07-20T11:47:28;3.45;;;1.52;;
24325;SDS011;12448;45.532;5.290;2023-07-20T11:49:46;4.80;;;1.33;;
24325;SDS011;12448;45.532;5.290;2023-07-20T11:52:16;2.22;;;1.20;;
24325;SDS011;12448;45.532;5.290;2023-07-20T11:54:43;1.55;;;0.90;;
24325;SDS011;12448;45.532;5.290;2023-07-20T11:57:16;4.90;;;1.67;;
24325;SDS011;12448;45.532;5.290;2023-07-20T11:59:55;3.15;;;1.45;;
24325;SDS011;12448;45.532;5.290;2023-07-20T12:02:37;2.70;;;1.40;;
24325;SDS011;12448;45.532;5.290;2023-07-20T12:05:04;3.80;;;1.42;;
24325;SDS011;12448;45.532;5.290;2023-07-20T12:07:34;6.03;;;1.30;;
24325;SDS011;12448;45.532;5.290;2023-07-20T12:10:08;3.08;;;1.30;;
24325;SDS011;12448;45.532;5.290;2023-07-20T12:12:37;3.13;;;1.40;;
24325;SDS011;12448;45.532;5.290;2023-07-20T12:15:13;2.58;;;1.27;;
24325;SDS011;12448;45.532;5.290;2023-07-20T12:17:45;3.22;;;1.33;;
24325;SDS011;12448;45.532;5.290;2023-07-20T12:20:12;3.67;;;1.15;;
24325;SDS011;12448;45.532;5.290;2023-07-20T12:22:38;2.03;;;1.23;;
24325;SDS011;12448;45.532;5.290;2023-07-20T12:25:08;2.42;;;1.17;;
24325;SDS011;12448;45.532;5.290;2023-07-20T12:27:37;3.85;;;1.40;;
24325;SDS011;12448;45.532;5.290;2023-07-20T12:30:04;1.90;;;1.27;;
24325;SDS011;12448;45.532;5.290;2023-07-20T12:32:31;3.78;;;1.20;;
24325;SDS011;12448;45.532;5.290;2023-07-20T12:34:56;4.10;;;1.30;;
24325;SDS011;12448;45.532;5.290;2023-07-20T12:37:22;2.35;;;1.40;;
24325;SDS011;12448;45.532;5.290;2023-07-20T12:39:48;3.28;;;1.30;;
24325;SDS011;12448;45.532;5.290;2023-07-20T12:42:14;2.08;;;1.20;;
24325;SDS011;12448;45.532;5.290;2023-07-20T12:44:42;3.08;;;1.10;;
24325;SDS011;12448;45.532;5.290;2023-07-20T12:47:08;2.35;;;1.13;;
24325;SDS011;12448;45.532;5.290;2023-07-20T12:49:33;1.95;;;1.38;;
24325;SDS011;12448;45.532;5.290;2023-07-20T12:51:59;1.98;;;1.13;;
24325;SDS011;12448;45.532;5.290;2023-07-20T12:54:25;2.17;;;1.25;;
24325;SDS011;12448;45.532;5.290;2023-07-20T12:56:50;2.25;;;1.17;;
24325;SDS011;12448;45.532;5.290;2023-07-20T12:59:16;8.50;;;1.55;;
24325;SDS011;12448;45.532;5.290;2023-07-20T13:01:41;4.20;;;1.55;;
24325;SDS011;12448;45.532;5.290;2023-07-20T13:04:08;3.97;;;1.55;;
24325;SDS011;12448;45.532;5.290;2023-07-20T13:06:35;1.98;;;1.30;;
24325;SDS011;12448;45.532;5.290;2023-07-20T13:09:02;2.17;;;1.40;;
24325;SDS011;12448;45.532;5.290;2023-07-20T13:11:28;3.92;;;1.52;;
24325;SDS011;12448;45.532;5.290;2023-07-20T13:16:24;4.38;;;1.58;;
24325;SDS011;12448;45.532;5.290;2023-07-20T13:18:50;2.40;;;1.40;;
24325;SDS011;12448;45.532;5.290;2023-07-20T13:21:16;1.85;;;1.15;;
24325;SDS011;12448;45.532;5.290;2023-07-20T13:23:42;1.45;;;1.10;;
24325;SDS011;12448;45.532;5.290;2023-07-20T13:26:07;2.00;;;1.45;;
24325;SDS011;12448;45.532;5.290;2023-07-20T13:28:34;3.88;;;1.77;;
24325;SDS011;12448;45.532;5.290;2023-07-20T13:31:00;4.90;;;1.30;;
24325;SDS011;12448;45.532;5.290;2023-07-20T13:33:28;3.92;;;1.30;;
24325;SDS011;12448;45.532;5.290;2023-07-20T13:35:54;2.58;;;1.58;;
24325;SDS011;12448;45.532;5.290;2023-07-20T13:38:21;3.22;;;1.30;;
24325;SDS011;12448;45.532;5.290;2023-07-20T13:40:47;3.05;;;1.38;;
24325;SDS011;12448;45.532;5.290;2023-07-20T13:43:13;3.08;;;1.40;;
24325;SDS011;12448;45.532;5.290;2023-07-20T13:45:38;2.75;;;1.50;;
24325;SDS011;12448;45.532;5.290;2023-07-20T13:48:04;3.58;;;1.23;;
24325;SDS011;12448;45.532;5.290;2023-07-20T13:50:30;2.10;;;1.30;;
24325;SDS011;12448;45.532;5.290;2023-07-20T13:52:59;5.50;;;1.38;;
24325;SDS011;12448;45.532;5.290;2023-07-20T13:55:24;2.67;;;1.48;;
24325;SDS011;12448;45.532;5.290;2023-07-20T13:57:50;3.55;;;1.60;;
24325;SDS011;12448;45.532;5.290;2023-07-20T14:00:16;1.77;;;1.17;;
24325;SDS011;12448;45.532;5.290;2023-07-20T14:02:42;4.10;;;1.42;;
24325;SDS011;12448;45.532;5.290;2023-07-20T14:05:08;3.55;;;1.25;;
24325;SDS011;12448;45.532;5.290;2023-07-20T14:07:35;11.38;;;1.73;;
24325;SDS011;12448;45.532;5.290;2023-07-20T14:10:02;6.20;;;1.40;;
24325;SDS011;12448;45.532;5.290;2023-07-20T14:12:29;3.33;;;1.17;;
24325;SDS011;12448;45.532;5.290;2023-07-20T14:15:00;2.92;;;1.30;;
24325;SDS011;12448;45.532;5.290;2023-07-20T14:17:27;5.10;;;1.30;;
24325;SDS011;12448;45.532;5.290;2023-07-20T14:19:53;4.63;;;1.23;;
24325;SDS011;12448;45.532;5.290;2023-07-20T14:22:19;6.32;;;1.65;;
24325;SDS011;12448;45.532;5.290;2023-07-20T14:24:44;2.95;;;1.40;;
24325;SDS011;12448;45.532;5.290;2023-07-20T14:27:10;2.05;;;1.30;;
24325;SDS011;12448;45.532;5.290;2023-07-20T14:29:36;1.70;;;1.20;;
24325;SDS011;12448;45.532;5.290;2023-07-20T14:32:02;1.90;;;1.23;;
24325;SDS011;12448;45.532;5.290;2023-07-20T14:37:06;4.93;;;1.33;;
24325;SDS011;12448;45.532;5.290;2023-07-20T14:39:33;3.78;;;1.50;;
24325;SDS011;12448;45.532;5.290;2023-07-20T14:41:58;4.53;;;1.40;;
24325;SDS011;12448;45.532;5.290;2023-07-20T14:44:25;2.95;;;1.25;;
24325;SDS011;12448;45.532;5.290;2023-07-20T14:46:51;3.65;;;1.40;;
24325;SDS011;12448;45.532;5.290;2023-07-20T14:49:17;4.00;;;1.30;;
24325;SDS011;12448;45.532;5.290;2023-07-20T14:51:43;4.93;;;1.60;;
24325;SDS011;12448;45.532;5.290;2023-07-20T14:54:11;2.95;;;1.45;;
24325;SDS011;12448;45.532;5.290;2023-07-20T14:56:47;1.85;;;1.40;;
24325;SDS011;12448;45.532;5.290;2023-07-20T14:59:19;4.93;;;1.38;;
24325;SDS011;12448;45.532;5.290;2023-07-20T15:01:45;5.07;;;1.38;;
24325;SDS011;12448;45.532;5.290;2023-07-20T15:04:12;2.38;;;1.40;;
24325;SDS011;12448;45.532;5.290;2023-07-20T15:06:56;6.63;;;1.48;;